sensor_id;sensor_type;location;lat;lon;timestamp;P1;durP1;ratioP1;P2;durP2;ratioP2
24357;SDS011;13668;52.154;5.580;2024-02-26T00:00:00;3.90;;;3.50;;
24357;SDS011;13668;52.154;5.580;2024-02-26T00:02:26;4.20;;;3.50;;
24357;SDS011;13668;52.154;5.580;2024-02-26T00:04:52;4.45;;;3.47;;
24357;SDS011;13668;52.154;5.580;2024-02-26T00:07:18;3.83;;;3.25;;
24357;SDS011;13668;52.154;5.580;2024-02-26T00:09:44;6.07;;;3.83;;
24357;SDS011;13668;52.154;5.580;2024-02-26T00:12:10;5.35;;;3.30;;
24357;SDS011;13668;52.154;5.580;2024-02-26T00:14:36;3.92;;;3.55;;
24357;SDS011;13668;52.154;5.580;2024-02-26T00:17:02;4.82;;;3.38;;
24357;SDS011;13668;52.154;5.580;2024-02-26T00:19:28;3.38;;;3.05;;
24357;SDS011;13668;52.154;5.580;2024-02-26T00:21:54;3.58;;;3.28;;
24357;SDS011;13668;52.154;5.580;2024-02-26T00:24:20;5.20;;;3.22;;
24357;SDS011;13668;52.154;5.580;2024-02-26T00:26:49;4.00;;;3.40;;
24357;SDS011;13668;52.154;5.580;2024-02-26T00:29:18;4.55;;;4.03;;
24357;SDS011;13668;52.154;5.580;2024-02-26T00:31:44;3.78;;;3.05;;
24357;SDS011;13668;52.154;5.580;2024-02-26T00:34:10;4.07;;;3.67;;
24357;SDS011;13668;52.154;5.580;2024-02-26T00:36:36;4.93;;;3.20;;
24357;SDS011;13668;52.154;5.580;2024-02-26T00:39:02;4.47;;;3.72;;
24357;SDS011;13668;52.154;5.580;2024-02-26T00:41:28;4.32;;;3.08;;
24357;SDS011;13668;52.154;5.580;2024-02-26T00:43:54;3.92;;;3.35;;
24357;SDS011;13668;52.154;5.580;2024-02-26T00:46:20;5.13;;;4.15;;
24357;SDS011;13668;52.154;5.580;2024-02-26T00:48:46;4.95;;;3.92;;
24357;SDS011;13668;52.154;5.580;2024-02-26T00:51:15;4.43;;;3.28;;
24357;SDS011;13668;52.154;5.580;2024-02-26T00:53:41;4.10;;;3.70;;
24357;SDS011;13668;52.154;5.580;2024-02-26T00:56:07;6.13;;;3.70;;
24357;SDS011;13668;52.154;5.580;2024-02-26T00:58:33;4.53;;;3.90;;
24357;SDS011;13668;52.154;5.580;2024-02-26T01:00:59;6.20;;;3.78;;
24357;SDS011;13668;52.154;5.580;2024-02-26T01:03:28;5.25;;;4.13;;
24357;SDS011;13668;52.154;5.580;2024-02-26T01:05:54;4.50;;;4.10;;
24357;SDS011;13668;52.154;5.580;2024-02-26T01:08:20;3.90;;;3.28;;
24357;SDS011;13668;52.154;5.580;2024-02-26T01:10:46;4.45;;;3.80;;
24357;SDS011;13668;52.154;5.580;2024-02-26T01:13:12;4.13;;;3.25;;
24357;SDS011;13668;52.154;5.580;2024-02-26T01:15:39;4.70;;;3.83;;
24357;SDS011;13668;52.154;5.580;2024-02-26T01:18:04;5.68;;;4.47;;
24357;SDS011;13668;52.154;5.580;2024-02-26T01:20:30;5.95;;;3.75;;
24357;SDS011;13668;52.154;5.580;2024-02-26T01:22:56;6.65;;;4.15;;
24357;SDS011;13668;52.154;5.580;2024-02-26T01:25:22;4.95;;;4.18;;
24357;SDS011;13668;52.154;5.580;2024-02-26T01:27:48;4.63;;;3.47;;
24357;SDS011;13668;52.154;5.580;2024-02-26T01:30:14;5.32;;;4.68;;
24357;SDS011;13668;52.154;5.580;2024-02-26T01:32:41;5.18;;;3.80;;
24357;SDS011;13668;52.154;5.580;2024-02-26T01:35:11;6.13;;;4.38;;
24357;SDS011;13668;52.154;5.580;2024-02-26T01:37:37;5.22;;;4.38;;
24357;SDS011;13668;52.154;5.580;2024-02-26T01:40:03;7.55;;;4.35;;
24357;SDS011;13668;52.154;5.580;2024-02-26T01:42:30;7.65;;;4.65;;
24357;SDS011;13668;52.154;5.580;2024-02-26T01:44:57;6.63;;;4.50;;
24357;SDS011;13668;52.154;5.580;2024-02-26T01:47:26;6.60;;;4.50;;
24357;SDS011;13668;52.154;5.580;2024-02-26T01:49:53;6.28;;;4.22;;
24357;SDS011;13668;52.154;5.580;2024-02-26T01:52:19;7.50;;;4.72;;
24357;SDS011;13668;52.154;5.580;2024-02-26T01:54:46;4.68;;;4.13;;
24357;SDS011;13668;52.154;5.580;2024-02-26T01:57:12;5.35;;;4.30;;
24357;SDS011;13668;52.154;5.580;2024-02-26T01:59:39;8.23;;;4.63;;
24357;SDS011;13668;52.154;5.580;2024-02-26T02:02:06;5.57;;;4.13;;
24357;SDS011;13668;52.154;5.580;2024-02-26T02:04:34;7.40;;;4.85;;
24357;SDS011;13668;52.154;5.580;2024-02-26T02:07:02;7.50;;;4.75;;
24357;SDS011;13668;52.154;5.580;2024-02-26T02:09:30;6.40;;;4.70;;
24357;SDS011;13668;52.154;5.580;2024-02-26T02:11:56;6.47;;;4.25;;
24357;SDS011;13668;52.154;5.580;2024-02-26T02:14:23;6.07;;;4.68;;
24357;SDS011;13668;52.154;5.580;2024-02-26T02:16:49;6.45;;;4.18;;
24357;SDS011;13668;52.154;5.580;2024-02-26T02:19:15;6.70;;;4.70;;
24357;SDS011;13668;52.154;5.580;2024-02-26T02:21:41;7.22;;;4.75;;
24357;SDS011;13668;52.154;5.580;2024-02-26T02:24:07;5.85;;;4.18;;
24357;SDS011;13668;52.154;5.580;2024-02-26T02:26:33;6.80;;;4.20;;
24357;SDS011;13668;52.154;5.580;2024-02-26T02:28:59;5.97;;;3.95;;
24357;SDS011;13668;52.154;5.580;2024-02-26T02:31:26;6.95;;;4.50;;
24357;SDS011;13668;52.154;5.580;2024-02-26T02:33:52;5.15;;;3.55;;
24357;SDS011;13668;52.154;5.580;2024-02-26T02:36:18;6.38;;;4.15;;
24357;SDS011;13668;52.154;5.580;2024-02-26T02:38:53;6.57;;;3.95;;
24357;SDS011;13668;52.154;5.580;2024-02-26T02:41:19;6.78;;;4.85;;
24357;SDS011;13668;52.154;5.580;2024-02-26T02:43:45;5.82;;;4.07;;
24357;SDS011;13668;52.154;5.580;2024-02-26T02:46:11;6.13;;;3.95;;
24357;SDS011;13668;52.154;5.580;2024-02-26T02:48:37;8.68;;;5.10;;
24357;SDS011;13668;52.154;5.580;2024-02-26T02:51:04;6.65;;;4.15;;
24357;SDS011;13668;52.154;5.580;2024-02-26T02:53:30;6.15;;;4.38;;
24357;SDS011;13668;52.154;5.580;2024-02-26T02:55:56;4.78;;;4.03;;
24357;SDS011;13668;52.154;5.580;2024-02-26T02:58:25;7.88;;;4.72;;
24357;SDS011;13668;52.154;5.580;2024-02-26T03:00:51;6.68;;;4.88;;
24357;SDS011;13668;52.154;5.580;2024-02-26T03:03:20;5.68;;;4.05;;
24357;SDS011;13668;52.154;5.580;2024-02-26T03:05:46;6.07;;;3.92;;
24357;SDS011;13668;52.154;5.580;2024-02-26T03:08:12;5.38;;;4.30;;
24357;SDS011;13668;52.154;5.580;2024-02-26T03:10:44;7.05;;;4.20;;
24357;SDS011;13668;52.154;5.580;2024-02-26T03:13:13;6.82;;;4.13;;
24357;SDS011;13668;52.154;5.580;2024-02-26T03:15:39;10.02;;;5.28;;
24357;SDS011;13668;52.154;5.580;2024-02-26T03:18:05;8.43;;;4.97;;
24357;SDS011;13668;52.154;5.580;2024-02-26T03:20:31;6.15;;;4.53;;
24357;SDS011;13668;52.154;5.580;2024-02-26T03:22:57;8.27;;;5.35;;
24357;SDS011;13668;52.154;5.580;2024-02-26T03:25:23;7.65;;;4.82;;
24357;SDS011;13668;52.154;5.580;2024-02-26T03:27:49;9.45;;;6.10;;
24357;SDS011;13668;52.154;5.580;2024-02-26T03:30:15;8.63;;;5.15;;
24357;SDS011;13668;52.154;5.580;2024-02-26T03:32:41;7.25;;;5.30;;
24357;SDS011;13668;52.154;5.580;2024-02-26T03:35:12;8.35;;;4.88;;
24357;SDS011;13668;52.154;5.580;2024-02-26T03:37:38;8.52;;;5.03;;
24357;SDS011;13668;52.154;5.580;2024-02-26T03:40:05;8.00;;;5.40;;
24357;SDS011;13668;52.154;5.580;2024-02-26T03:42:31;9.15;;;5.53;;
24357;SDS011;13668;52.154;5.580;2024-02-26T03:45:06;7.50;;;4.85;;
24357;SDS011;13668;52.154;5.580;2024-02-26T03:47:32;9.60;;;5.63;;
24357;SDS011;13668;52.154;5.580;2024-02-26T03:49:58;6.70;;;4.80;;
24357;SDS011;13668;52.154;5.580;2024-02-26T03:52:24;7.28;;;4.70;;
24357;SDS011;13668;52.154;5.580;2024-02-26T03:54:50;7.97;;;5.38;;
24357;SDS011;13668;52.154;5.580;2024-02-26T03:57:16;8.48;;;5.45;;
24357;SDS011;13668;52.154;5.580;2024-02-26T03:59:43;10.27;;;6.30;;
24357;SDS011;13668;52.154;5.580;2024-02-26T04:02:09;10.93;;;5.40;;
24357;SDS011;13668;52.154;5.580;2024-02-26T04:04:37;7.68;;;5.70;;
24357;SDS011;13668;52.154;5.580;2024-02-26T04:07:03;8.10;;;5.65;;
24357;SDS011;13668;52.154;5.580;2024-02-26T04:09:31;8.10;;;5.40;;
24357;SDS011;13668;52.154;5.580;2024-02-26T04:11:57;7.60;;;5.03;;
24357;SDS011;13668;52.154;5.580;2024-02-26T04:14:23;7.47;;;5.32;;
24357;SDS011;13668;52.154;5.580;2024-02-26T04:16:49;10.57;;;5.78;;
24357;SDS011;13668;52.154;5.580;2024-02-26T04:19:18;7.95;;;5.68;;
24357;SDS011;13668;52.154;5.580;2024-02-26T04:21:44;9.38;;;5.03;;
24357;SDS011;13668;52.154;5.580;2024-02-26T04:24:10;6.65;;;5.00;;
24357;SDS011;13668;52.154;5.580;2024-02-26T04:26:36;8.30;;;5.45;;
24357;SDS011;13668;52.154;5.580;2024-02-26T04:29:02;10.05;;;5.38;;
24357;SDS011;13668;52.154;5.580;2024-02-26T04:31:37;6.43;;;4.55;;
24357;SDS011;13668;52.154;5.580;2024-02-26T04:34:04;6.82;;;4.80;;
24357;SDS011;13668;52.154;5.580;2024-02-26T04:36:30;7.47;;;4.82;;
24357;SDS011;13668;52.154;5.580;2024-02-26T04:38:56;8.93;;;4.88;;
24357;SDS011;13668;52.154;5.580;2024-02-26T04:41:22;9.68;;;5.28;;
24357;SDS011;13668;52.154;5.580;2024-02-26T04:43:51;7.70;;;4.75;;
24357;SDS011;13668;52.154;5.580;2024-02-26T04:46:17;7.43;;;5.38;;
24357;SDS011;13668;52.154;5.580;2024-02-26T04:48:43;7.40;;;4.72;;
24357;SDS011;13668;52.154;5.580;2024-02-26T04:51:10;8.75;;;5.25;;
24357;SDS011;13668;52.154;5.580;2024-02-26T04:53:57;8.57;;;4.95;;
24357;SDS011;13668;52.154;5.580;2024-02-26T04:56:22;8.55;;;5.53;;
24357;SDS011;13668;52.154;5.580;2024-02-26T04:58:48;9.65;;;5.63;;
24357;SDS011;13668;52.154;5.580;2024-02-26T05:01:15;8.00;;;5.07;;
24357;SDS011;13668;52.154;5.580;2024-02-26T05:03:41;8.95;;;5.43;;
24357;SDS011;13668;52.154;5.580;2024-02-26T05:06:07;7.65;;;5.07;;
24357;SDS011;13668;52.154;5.580;2024-02-26T05:08:34;10.07;;;5.30;;
24357;SDS011;13668;52.154;5.580;2024-02-26T05:11:01;10.23;;;5.88;;
24357;SDS011;13668;52.154;5.580;2024-02-26T05:13:28;8.52;;;4.88;;
24357;SDS011;13668;52.154;5.580;2024-02-26T05:15:54;8.45;;;5.20;;
24357;SDS011;13668;52.154;5.580;2024-02-26T05:18:20;7.60;;;5.25;;
24357;SDS011;13668;52.154;5.580;2024-02-26T05:20:46;9.52;;;5.90;;
24357;SDS011;13668;52.154;5.580;2024-02-26T05:23:12;6.50;;;5.07;;
24357;SDS011;13668;52.154;5.580;2024-02-26T05:25:41;9.75;;;6.13;;
24357;SDS011;13668;52.154;5.580;2024-02-26T05:28:07;9.90;;;6.38;;
24357;SDS011;13668;52.154;5.580;2024-02-26T05:30:36;8.35;;;5.60;;
24357;SDS011;13668;52.154;5.580;2024-02-26T05:33:05;9.23;;;6.15;;
24357;SDS011;13668;52.154;5.580;2024-02-26T05:35:31;10.63;;;6.25;;
24357;SDS011;13668;52.154;5.580;2024-02-26T05:37:56;8.32;;;5.45;;
24357;SDS011;13668;52.154;5.580;2024-02-26T05:40:35;10.98;;;6.38;;
24357;SDS011;13668;52.154;5.580;2024-02-26T05:43:01;11.48;;;6.00;;
24357;SDS011;13668;52.154;5.580;2024-02-26T05:45:27;10.43;;;5.63;;
24357;SDS011;13668;52.154;5.580;2024-02-26T05:47:53;7.60;;;5.40;;
24357;SDS011;13668;52.154;5.580;2024-02-26T05:50:19;9.90;;;6.20;;
24357;SDS011;13668;52.154;5.580;2024-02-26T05:52:45;10.00;;;5.88;;
24357;SDS011;13668;52.154;5.580;2024-02-26T05:55:11;11.57;;;6.55;;
24357;SDS011;13668;52.154;5.580;2024-02-26T05:57:44;9.00;;;5.95;;
24357;SDS011;13668;52.154;5.580;2024-02-26T06:00:13;11.02;;;6.57;;
24357;SDS011;13668;52.154;5.580;2024-02-26T06:02:39;10.70;;;7.05;;
24357;SDS011;13668;52.154;5.580;2024-02-26T06:05:05;11.75;;;6.63;;
24357;SDS011;13668;52.154;5.580;2024-02-26T06:07:33;9.40;;;5.95;;
24357;SDS011;13668;52.154;5.580;2024-02-26T06:09:59;13.68;;;6.60;;
24357;SDS011;13668;52.154;5.580;2024-02-26T06:12:25;9.57;;;5.95;;
24357;SDS011;13668;52.154;5.580;2024-02-26T06:14:53;10.80;;;7.47;;
24357;SDS011;13668;52.154;5.580;2024-02-26T06:17:19;13.13;;;6.60;;
24357;SDS011;13668;52.154;5.580;2024-02-26T06:19:45;11.95;;;6.88;;
24357;SDS011;13668;52.154;5.580;2024-02-26T06:22:11;11.02;;;7.07;;
24357;SDS011;13668;52.154;5.580;2024-02-26T06:24:37;13.40;;;6.60;;
24357;SDS011;13668;52.154;5.580;2024-02-26T06:27:03;11.60;;;5.75;;
24357;SDS011;13668;52.154;5.580;2024-02-26T06:29:29;9.95;;;6.25;;
24357;SDS011;13668;52.154;5.580;2024-02-26T06:31:55;10.23;;;6.45;;
24357;SDS011;13668;52.154;5.580;2024-02-26T06:34:21;12.82;;;7.28;;
24357;SDS011;13668;52.154;5.580;2024-02-26T06:36:47;13.02;;;6.95;;
24357;SDS011;13668;52.154;5.580;2024-02-26T06:39:13;13.52;;;7.22;;
24357;SDS011;13668;52.154;5.580;2024-02-26T06:41:41;12.50;;;6.78;;
24357;SDS011;13668;52.154;5.580;2024-02-26T06:44:07;14.57;;;7.05;;
24357;SDS011;13668;52.154;5.580;2024-02-26T06:46:33;13.77;;;7.15;;
24357;SDS011;13668;52.154;5.580;2024-02-26T06:48:59;11.40;;;7.03;;
24357;SDS011;13668;52.154;5.580;2024-02-26T06:51:25;11.02;;;6.78;;
24357;SDS011;13668;52.154;5.580;2024-02-26T06:53:50;12.77;;;6.32;;
24357;SDS011;13668;52.154;5.580;2024-02-26T06:56:16;15.93;;;8.07;;
24357;SDS011;13668;52.154;5.580;2024-02-26T06:58:42;11.82;;;7.00;;
24357;SDS011;13668;52.154;5.580;2024-02-26T07:01:08;13.65;;;7.10;;
24357;SDS011;13668;52.154;5.580;2024-02-26T07:03:34;15.15;;;7.68;;
24357;SDS011;13668;52.154;5.580;2024-02-26T07:06:03;14.02;;;6.97;;
24357;SDS011;13668;52.154;5.580;2024-02-26T07:08:31;12.88;;;7.10;;
24357;SDS011;13668;52.154;5.580;2024-02-26T07:10:58;16.98;;;7.95;;
24357;SDS011;13668;52.154;5.580;2024-02-26T07:13:23;14.95;;;7.10;;
24357;SDS011;13668;52.154;5.580;2024-02-26T07:15:49;14.98;;;7.13;;
24357;SDS011;13668;52.154;5.580;2024-02-26T07:18:15;15.93;;;7.57;;
24357;SDS011;13668;52.154;5.580;2024-02-26T07:20:41;14.77;;;6.68;;
24357;SDS011;13668;52.154;5.580;2024-02-26T07:23:07;17.17;;;8.60;;
24357;SDS011;13668;52.154;5.580;2024-02-26T07:25:33;18.27;;;8.73;;
24357;SDS011;13668;52.154;5.580;2024-02-26T07:27:59;15.77;;;7.93;;
24357;SDS011;13668;52.154;5.580;2024-02-26T07:30:25;17.13;;;9.35;;
24357;SDS011;13668;52.154;5.580;2024-02-26T07:32:51;21.33;;;10.10;;
24357;SDS011;13668;52.154;5.580;2024-02-26T07:35:17;16.42;;;8.48;;
24357;SDS011;13668;52.154;5.580;2024-02-26T07:37:43;18.27;;;8.45;;
24357;SDS011;13668;52.154;5.580;2024-02-26T07:40:09;19.08;;;9.30;;
24357;SDS011;13668;52.154;5.580;2024-02-26T07:42:35;19.42;;;9.80;;
24357;SDS011;13668;52.154;5.580;2024-02-26T07:45:02;19.05;;;9.02;;
24357;SDS011;13668;52.154;5.580;2024-02-26T07:47:28;19.55;;;9.65;;
24357;SDS011;13668;52.154;5.580;2024-02-26T07:49:54;17.23;;;9.35;;
24357;SDS011;13668;52.154;5.580;2024-02-26T07:52:20;19.95;;;9.75;;
24357;SDS011;13668;52.154;5.580;2024-02-26T07:54:46;24.48;;;10.00;;
24357;SDS011;13668;52.154;5.580;2024-02-26T07:57:12;16.67;;;8.60;;
24357;SDS011;13668;52.154;5.580;2024-02-26T07:59:41;19.40;;;9.35;;
24357;SDS011;13668;52.154;5.580;2024-02-26T08:02:07;18.73;;;10.48;;
24357;SDS011;13668;52.154;5.580;2024-02-26T08:04:33;19.90;;;10.68;;
24357;SDS011;13668;52.154;5.580;2024-02-26T08:06:59;19.02;;;8.98;;
24357;SDS011;13668;52.154;5.580;2024-02-26T08:09:25;16.33;;;9.43;;
24357;SDS011;13668;52.154;5.580;2024-02-26T08:11:51;13.98;;;7.97;;
24357;SDS011;13668;52.154;5.580;2024-02-26T08:14:17;16.88;;;7.90;;
24357;SDS011;13668;52.154;5.580;2024-02-26T08:16:43;18.60;;;9.05;;
24357;SDS011;13668;52.154;5.580;2024-02-26T08:19:09;15.93;;;8.88;;
24357;SDS011;13668;52.154;5.580;2024-02-26T08:21:38;16.88;;;9.07;;
24357;SDS011;13668;52.154;5.580;2024-02-26T08:24:04;15.30;;;7.97;;
24357;SDS011;13668;52.154;5.580;2024-02-26T08:26:30;17.27;;;8.90;;
24357;SDS011;13668;52.154;5.580;2024-02-26T08:28:56;17.85;;;8.43;;
24357;SDS011;13668;52.154;5.580;2024-02-26T08:31:23;15.50;;;7.57;;
24357;SDS011;13668;52.154;5.580;2024-02-26T08:33:49;12.90;;;7.00;;
24357;SDS011;13668;52.154;5.580;2024-02-26T08:36:15;12.93;;;7.65;;
24357;SDS011;13668;52.154;5.580;2024-02-26T08:38:41;14.35;;;7.65;;
24357;SDS011;13668;52.154;5.580;2024-02-26T08:41:07;13.43;;;6.43;;
24357;SDS011;13668;52.154;5.580;2024-02-26T08:43:33;12.73;;;6.53;;
24357;SDS011;13668;52.154;5.580;2024-02-26T08:45:59;11.43;;;6.07;;
24357;SDS011;13668;52.154;5.580;2024-02-26T08:48:25;9.82;;;6.28;;
24357;SDS011;13668;52.154;5.580;2024-02-26T08:50:50;12.07;;;6.55;;
24357;SDS011;13668;52.154;5.580;2024-02-26T08:53:16;11.85;;;6.88;;
24357;SDS011;13668;52.154;5.580;2024-02-26T08:55:42;9.32;;;5.38;;
24357;SDS011;13668;52.154;5.580;2024-02-26T08:58:08;10.07;;;5.80;;
24357;SDS011;13668;52.154;5.580;2024-02-26T09:00:34;10.80;;;5.80;;
24357;SDS011;13668;52.154;5.580;2024-02-26T09:03:00;9.50;;;5.75;;
24357;SDS011;13668;52.154;5.580;2024-02-26T09:05:26;9.57;;;5.93;;
24357;SDS011;13668;52.154;5.580;2024-02-26T09:07:52;9.70;;;5.55;;
24357;SDS011;13668;52.154;5.580;2024-02-26T09:10:22;8.38;;;5.75;;
24357;SDS011;13668;52.154;5.580;2024-02-26T09:12:47;9.40;;;5.30;;
24357;SDS011;13668;52.154;5.580;2024-02-26T09:15:13;8.90;;;5.40;;
24357;SDS011;13668;52.154;5.580;2024-02-26T09:17:39;8.63;;;5.28;;
24357;SDS011;13668;52.154;5.580;2024-02-26T09:20:06;12.55;;;5.40;;
24357;SDS011;13668;52.154;5.580;2024-02-26T09:22:34;11.88;;;5.70;;
24357;SDS011;13668;52.154;5.580;2024-02-26T09:25:05;7.50;;;4.88;;
24357;SDS011;13668;52.154;5.580;2024-02-26T09:27:31;6.72;;;4.70;;
24357;SDS011;13668;52.154;5.580;2024-02-26T09:29:58;10.00;;;5.07;;
24357;SDS011;13668;52.154;5.580;2024-02-26T09:32:23;7.85;;;4.80;;
24357;SDS011;13668;52.154;5.580;2024-02-26T09:34:50;5.63;;;4.38;;
24357;SDS011;13668;52.154;5.580;2024-02-26T09:37:16;7.63;;;4.07;;
24357;SDS011;13668;52.154;5.580;2024-02-26T09:39:42;8.57;;;5.45;;
24357;SDS011;13668;52.154;5.580;2024-02-26T09:42:08;6.10;;;4.00;;
24357;SDS011;13668;52.154;5.580;2024-02-26T09:44:35;8.25;;;4.97;;
24357;SDS011;13668;52.154;5.580;2024-02-26T09:47:03;7.75;;;4.80;;
24357;SDS011;13668;52.154;5.580;2024-02-26T09:49:31;5.80;;;4.40;;
24357;SDS011;13668;52.154;5.580;2024-02-26T09:51:57;6.60;;;4.07;;
24357;SDS011;13668;52.154;5.580;2024-02-26T09:54:27;6.85;;;3.95;;
24357;SDS011;13668;52.154;5.580;2024-02-26T09:56:54;7.05;;;4.28;;
24357;SDS011;13668;52.154;5.580;2024-02-26T09:59:23;9.90;;;4.45;;
24357;SDS011;13668;52.154;5.580;2024-02-26T10:01:49;7.55;;;4.75;;
24357;SDS011;13668;52.154;5.580;2024-02-26T10:04:19;5.78;;;3.85;;
24357;SDS011;13668;52.154;5.580;2024-02-26T10:06:47;7.05;;;4.32;;
24357;SDS011;13668;52.154;5.580;2024-02-26T10:09:14;5.85;;;3.83;;
24357;SDS011;13668;52.154;5.580;2024-02-26T10:11:41;7.18;;;4.50;;
24357;SDS011;13668;52.154;5.580;2024-02-26T10:14:08;6.20;;;4.32;;
24357;SDS011;13668;52.154;5.580;2024-02-26T10:16:34;6.88;;;3.90;;
24357;SDS011;13668;52.154;5.580;2024-02-26T10:19:01;8.30;;;5.05;;
24357;SDS011;13668;52.154;5.580;2024-02-26T10:21:27;7.15;;;4.10;;
24357;SDS011;13668;52.154;5.580;2024-02-26T10:23:56;6.85;;;4.50;;
24357;SDS011;13668;52.154;5.580;2024-02-26T10:26:22;7.65;;;4.15;;
24357;SDS011;13668;52.154;5.580;2024-02-26T10:28:48;7.38;;;3.70;;
24357;SDS011;13668;52.154;5.580;2024-02-26T10:31:23;7.13;;;4.03;;
24357;SDS011;13668;52.154;5.580;2024-02-26T10:33:55;5.72;;;3.85;;
24357;SDS011;13668;52.154;5.580;2024-02-26T10:36:21;5.25;;;3.45;;
24357;SDS011;13668;52.154;5.580;2024-02-26T10:38:47;6.43;;;3.97;;
24357;SDS011;13668;52.154;5.580;2024-02-26T10:41:14;7.03;;;4.00;;
24357;SDS011;13668;52.154;5.580;2024-02-26T10:43:41;5.10;;;3.67;;
24357;SDS011;13668;52.154;5.580;2024-02-26T10:49:19;5.72;;;3.78;;
24357;SDS011;13668;52.154;5.580;2024-02-26T10:51:47;7.95;;;4.07;;
24357;SDS011;13668;52.154;5.580;2024-02-26T10:54:16;8.55;;;5.32;;
24357;SDS011;13668;52.154;5.580;2024-02-26T10:56:42;6.85;;;3.83;;
24357;SDS011;13668;52.154;5.580;2024-02-26T10:59:11;5.88;;;3.63;;
24357;SDS011;13668;52.154;5.580;2024-02-26T11:01:50;4.85;;;3.70;;
24357;SDS011;13668;52.154;5.580;2024-02-26T11:04:16;6.07;;;3.45;;
24357;SDS011;13668;52.154;5.580;2024-02-26T11:06:43;5.88;;;3.67;;
24357;SDS011;13668;52.154;5.580;2024-02-26T11:09:10;4.35;;;3.25;;
24357;SDS011;13668;52.154;5.580;2024-02-26T11:11:38;6.78;;;3.88;;
24357;SDS011;13668;52.154;5.580;2024-02-26T11:14:05;6.57;;;3.72;;
24357;SDS011;13668;52.154;5.580;2024-02-26T11:16:33;4.85;;;2.83;;
24357;SDS011;13668;52.154;5.580;2024-02-26T11:19:10;5.80;;;3.40;;
24357;SDS011;13668;52.154;5.580;2024-02-26T11:21:47;6.15;;;3.80;;
24357;SDS011;13668;52.154;5.580;2024-02-26T11:24:14;7.20;;;3.95;;
24357;SDS011;13668;52.154;5.580;2024-02-26T11:27:42;7.35;;;3.88;;
24357;SDS011;13668;52.154;5.580;2024-02-26T11:29:58;4.40;;;3.40;;
24357;SDS011;13668;52.154;5.580;2024-02-26T11:32:26;6.60;;;4.28;;
24357;SDS011;13668;52.154;5.580;2024-02-26T11:34:53;6.97;;;4.15;;
24357;SDS011;13668;52.154;5.580;2024-02-26T11:37:19;6.68;;;4.20;;
24357;SDS011;13668;52.154;5.580;2024-02-26T11:39:45;7.82;;;4.25;;
24357;SDS011;13668;52.154;5.580;2024-02-26T11:45:02;5.85;;;3.63;;
24357;SDS011;13668;52.154;5.580;2024-02-26T11:47:28;8.73;;;4.65;;
24357;SDS011;13668;52.154;5.580;2024-02-26T11:49:54;5.53;;;3.42;;
24357;SDS011;13668;52.154;5.580;2024-02-26T11:52:20;6.00;;;4.00;;
24357;SDS011;13668;52.154;5.580;2024-02-26T11:54:47;5.90;;;3.53;;
24357;SDS011;13668;52.154;5.580;2024-02-26T11:59:46;5.97;;;3.70;;
24357;SDS011;13668;52.154;5.580;2024-02-26T12:02:23;8.35;;;4.38;;
24357;SDS011;13668;52.154;5.580;2024-02-26T12:04:59;5.72;;;3.60;;
24357;SDS011;13668;52.154;5.580;2024-02-26T12:07:25;8.32;;;3.63;;
24357;SDS011;13668;52.154;5.580;2024-02-26T12:09:51;6.68;;;3.88;;
24357;SDS011;13668;52.154;5.580;2024-02-26T12:12:17;8.45;;;4.72;;
24357;SDS011;13668;52.154;5.580;2024-02-26T12:14:51;12.02;;;4.65;;
24357;SDS011;13668;52.154;5.580;2024-02-26T12:17:24;4.93;;;3.80;;
24357;SDS011;13668;52.154;5.580;2024-02-26T12:19:50;7.65;;;3.97;;
24357;SDS011;13668;52.154;5.580;2024-02-26T12:22:18;5.25;;;3.42;;
24357;SDS011;13668;52.154;5.580;2024-02-26T12:24:45;8.55;;;4.50;;
24357;SDS011;13668;52.154;5.580;2024-02-26T12:27:11;6.65;;;3.97;;
24357;SDS011;13668;52.154;5.580;2024-02-26T12:29:37;10.27;;;4.78;;
24357;SDS011;13668;52.154;5.580;2024-02-26T12:34:59;6.90;;;3.90;;
24357;SDS011;13668;52.154;5.580;2024-02-26T12:37:25;6.55;;;3.67;;
24357;SDS011;13668;52.154;5.580;2024-02-26T12:39:51;7.95;;;4.85;;
24357;SDS011;13668;52.154;5.580;2024-02-26T12:42:17;6.40;;;3.67;;
24357;SDS011;13668;52.154;5.580;2024-02-26T12:44:45;6.72;;;4.72;;
24357;SDS011;13668;52.154;5.580;2024-02-26T12:47:11;7.38;;;4.05;;
24357;SDS011;13668;52.154;5.580;2024-02-26T12:49:47;6.63;;;3.92;;
24357;SDS011;13668;52.154;5.580;2024-02-26T12:52:13;4.45;;;3.33;;
24357;SDS011;13668;52.154;5.580;2024-02-26T12:57:31;5.95;;;3.70;;
24357;SDS011;13668;52.154;5.580;2024-02-26T12:59:59;6.15;;;3.60;;
24357;SDS011;13668;52.154;5.580;2024-02-26T13:02:25;7.65;;;4.65;;
24357;SDS011;13668;52.154;5.580;2024-02-26T13:04:51;4.88;;;4.13;;
24357;SDS011;13668;52.154;5.580;2024-02-26T13:07:18;6.90;;;4.05;;
24357;SDS011;13668;52.154;5.580;2024-02-26T13:09:44;7.97;;;4.30;;
24357;SDS011;13668;52.154;5.580;2024-02-26T13:12:10;5.55;;;3.95;;
24357;SDS011;13668;52.154;5.580;2024-02-26T13:14:38;6.78;;;3.40;;
24357;SDS011;13668;52.154;5.580;2024-02-26T13:17:04;11.48;;;3.88;;
24357;SDS011;13668;52.154;5.580;2024-02-26T13:19:30;5.40;;;3.40;;
24357;SDS011;13668;52.154;5.580;2024-02-26T13:22:07;7.32;;;3.78;;
24357;SDS011;13668;52.154;5.580;2024-02-26T13:27:50;6.55;;;3.78;;
24357;SDS011;13668;52.154;5.580;2024-02-26T13:30:16;4.82;;;3.75;;
24357;SDS011;13668;52.154;5.580;2024-02-26T13:32:44;6.82;;;3.92;;
24357;SDS011;13668;52.154;5.580;2024-02-26T13:35:12;4.32;;;3.42;;
24357;SDS011;13668;52.154;5.580;2024-02-26T13:37:39;5.65;;;3.80;;
24357;SDS011;13668;52.154;5.580;2024-02-26T13:40:09;7.10;;;3.90;;
24357;SDS011;13668;52.154;5.580;2024-02-26T13:42:36;5.32;;;3.35;;
24357;SDS011;13668;52.154;5.580;2024-02-26T13:45:03;5.95;;;3.47;;
24357;SDS011;13668;52.154;5.580;2024-02-26T13:47:46;5.50;;;3.25;;
24357;SDS011;13668;52.154;5.580;2024-02-26T13:50:12;5.10;;;3.42;;
24357;SDS011;13668;52.154;5.580;2024-02-26T13:52:47;7.40;;;3.85;;
24357;SDS011;13668;52.154;5.580;2024-02-26T13:55:27;7.03;;;3.63;;
24357;SDS011;13668;52.154;5.580;2024-02-26T13:57:57;6.13;;;3.95;;
24357;SDS011;13668;52.154;5.580;2024-02-26T14:00:23;7.28;;;4.15;;
24357;SDS011;13668;52.154;5.580;2024-02-26T14:06:38;7.03;;;3.95;;
24357;SDS011;13668;52.154;5.580;2024-02-26T14:08:59;5.80;;;3.58;;
24357;SDS011;13668;52.154;5.580;2024-02-26T14:11:25;6.05;;;3.47;;
24357;SDS011;13668;52.154;5.580;2024-02-26T14:13:54;5.35;;;3.20;;
24357;SDS011;13668;52.154;5.580;2024-02-26T14:16:23;5.25;;;3.20;;
24357;SDS011;13668;52.154;5.580;2024-02-26T14:18:55;5.03;;;3.30;;
24357;SDS011;13668;52.154;5.580;2024-02-26T14:21:33;8.13;;;3.47;;
24357;SDS011;13668;52.154;5.580;2024-02-26T14:23:59;5.50;;;3.28;;
24357;SDS011;13668;52.154;5.580;2024-02-26T14:26:33;3.65;;;2.70;;
24357;SDS011;13668;52.154;5.580;2024-02-26T14:28:59;5.63;;;2.53;;
24357;SDS011;13668;52.154;5.580;2024-02-26T14:31:25;4.35;;;3.22;;
24357;SDS011;13668;52.154;5.580;2024-02-26T14:33:51;5.30;;;3.40;;
24357;SDS011;13668;52.154;5.580;2024-02-26T14:36:28;4.63;;;2.88;;
24357;SDS011;13668;52.154;5.580;2024-02-26T14:38:58;3.53;;;2.50;;
24357;SDS011;13668;52.154;5.580;2024-02-26T14:41:24;5.18;;;3.08;;
24357;SDS011;13668;52.154;5.580;2024-02-26T14:43:50;4.18;;;2.78;;
24357;SDS011;13668;52.154;5.580;2024-02-26T14:46:19;5.05;;;2.60;;
24357;SDS011;13668;52.154;5.580;2024-02-26T14:48:45;4.10;;;2.88;;
24357;SDS011;13668;52.154;5.580;2024-02-26T14:51:11;3.53;;;2.55;;
24357;SDS011;13668;52.154;5.580;2024-02-26T14:53:46;4.97;;;2.95;;
24357;SDS011;13668;52.154;5.580;2024-02-26T14:56:14;4.53;;;2.55;;
24357;SDS011;13668;52.154;5.580;2024-02-26T14:58:43;3.28;;;2.28;;
24357;SDS011;13668;52.154;5.580;2024-02-26T15:01:10;5.45;;;2.90;;
24357;SDS011;13668;52.154;5.580;2024-02-26T15:03:39;3.65;;;2.63;;